Terminal Aerodrome Forecast
Issued by NWS

Home | Current Version | Previous Version | Text Only | Print | Product List | Glossary On
Versions: 1 2 3 4 5 6 7 8 9 10 11 12 13 14 15 16 17 18 19 20 21 22 23 24
000
FTUS42 KJAX 270500
TAFVQQ
TAF
KVQQ 270520Z 2706/2806 00000KT P6SM BKN040
      TEMPO 2708/2712 3SM BR BKN025
     FM271400 06007KT P6SM SCT030 BKN060
     FM280100 07003KT 5SM BR BKN030=

USA.gov is the U.S. government's official web portal to all federal, state and local government web resources and services.